createdAt,value
2023-04-10T00:02:53.213Z,99955.28
2023-04-10T00:05:57.374Z,99957.85
2023-04-10T00:09:00.386Z,99961.38
2023-04-10T00:12:03.612Z,99959.36
2023-04-10T00:15:07.224Z,99963.51
2023-04-10T00:18:09.937Z,99967.42
2023-04-10T00:21:12.830Z,99966.66
2023-04-10T00:24:15.644Z,99964.13
2023-04-10T00:27:18.350Z,99963.38
2023-04-10T00:30:21.854Z,99963.27
2023-04-10T00:33:25.440Z,99957.77
2023-04-10T00:36:28.609Z,99957.73
2023-04-10T00:39:31.638Z,99956.25
2023-04-10T00:42:34.496Z,99953.98
2023-04-10T00:45:37.480Z,99957.29
2023-04-10T00:48:40.808Z,99959.30
2023-04-10T00:51:44.756Z,99961.41
2023-04-10T00:54:47.731Z,99963.39
2023-04-10T00:57:50.653Z,99967.04
2023-04-10T01:00:53.415Z,99965.89
2023-04-10T01:04:56.973Z,99962.46
2023-04-10T01:09:28.438Z,99960.37
2023-04-10T01:14:10.685Z,99951.76
2023-04-10T01:19:05.336Z,99949.91
2023-04-10T01:23:40.554Z,99947.50
2023-04-10T01:28:10.063Z,99950.25
2023-04-10T01:32:43.079Z,99955.73
2023-04-10T01:37:07.108Z,99962.73
2023-04-10T01:41:30.917Z,99960.97
2023-04-10T01:45:54.787Z,99962.39
2023-04-10T01:50:19.501Z,99964.98
2023-04-10T01:54:43.234Z,99966.33
2023-04-10T01:59:15.386Z,99975.82
2023-04-10T02:03:39.236Z,99976.38
2023-04-10T02:08:03.217Z,99973.22
2023-04-10T02:12:36.100Z,99973.10
2023-04-10T02:16:59.827Z,99970.76
2023-04-10T02:21:24.180Z,99968.38
2023-04-10T02:25:48.104Z,99961.89
2023-04-10T02:30:11.852Z,99967.75
2023-04-10T02:34:35.647Z,99971.11
2023-04-10T02:38:59.805Z,99970.05
2023-04-10T02:43:23.292Z,99968.30
2023-04-10T02:47:47.200Z,99965.63
2023-04-10T02:52:10.996Z,99965.94
2023-04-10T02:56:33.564Z,99962.11
2023-04-10T03:00:57.314Z,99959.04
2023-04-10T03:05:25.787Z,99962.98
2023-04-10T03:09:49.541Z,99966.48
2023-04-10T03:14:13.333Z,99963.54
2023-04-10T03:18:37.082Z,99965.98
2023-04-10T03:23:01.073Z,99967.49
2023-04-10T03:27:24.814Z,99968.89
2023-04-10T03:31:48.731Z,99972.59
2023-04-10T03:36:05.380Z,99969.70
2023-04-10T03:40:29.183Z,99978.04
2023-04-10T03:44:53.078Z,99977.97
2023-04-10T03:49:16.892Z,99979.28
2023-04-10T03:53:40.763Z,99971.89
2023-04-10T03:58:04.548Z,99984.69
2023-04-10T04:02:28.505Z,99993.48
2023-04-10T04:06:53.132Z,99990.96
2023-04-10T04:11:15.424Z,99995.47
2023-04-10T04:15:32.169Z,99994.73
2023-04-10T04:20:01.863Z,100003.25
2023-04-10T04:24:44.040Z,100002.04
2023-04-10T04:29:06.727Z,100003.54
2023-04-10T04:33:39.313Z,100005.13
2023-04-10T04:38:03.204Z,100009.89
2023-04-10T04:42:25.761Z,100015.20
2023-04-10T04:46:58.637Z,100017.52
2023-04-10T04:51:25.241Z,100020.59
2023-04-10T04:55:49.310Z,100019.52
2023-04-10T05:00:22.339Z,100024.66
2023-04-10T05:04:46.127Z,100022.48
2023-04-10T05:09:37.079Z,100026.50
2023-04-10T05:14:00.819Z,100031.47
2023-04-10T05:18:30.498Z,100035.52
2023-04-10T05:23:00.494Z,100043.23
2023-04-10T05:27:33.115Z,100047.46
2023-04-10T05:32:02.989Z,100047.14
2023-04-10T05:36:23.915Z,100045.64
2023-04-10T05:40:53.338Z,100049.82
2023-04-10T05:45:32.475Z,100056.57
2023-04-10T05:50:03.036Z,100049.42
2023-04-10T05:54:26.795Z,100048.51
2023-04-10T05:58:50.555Z,100055.90
2023-04-10T06:03:14.337Z,100058.75
2023-04-10T06:07:38.244Z,100056.35
2023-04-10T06:12:02.033Z,100060.58
2023-04-10T06:16:25.812Z,100058.89
2023-04-10T06:20:49.894Z,100054.97
2023-04-10T06:25:13.664Z,100052.18
2023-04-10T06:29:37.398Z,100052.89
2023-04-10T06:34:01.194Z,100047.00
2023-04-10T06:38:31.216Z,100047.13
2023-04-10T06:42:55.022Z,100052.84
2023-04-10T06:47:18.818Z,100057.35
2023-04-10T06:51:42.594Z,100058.44
2023-04-10T06:56:09.368Z,100061.40
2023-04-10T07:00:33.123Z,100057.40
2023-04-10T07:04:56.927Z,100061.67
2023-04-10T07:09:20.685Z,100059.67
2023-04-10T07:13:44.434Z,100055.98
2023-04-10T07:18:08.214Z,100059.42
2023-04-10T07:22:32.066Z,100064.25
2023-04-10T07:26:55.829Z,100059.16
2023-04-10T07:31:19.077Z,100065.63
2023-04-10T07:35:42.942Z,100069.38
2023-04-10T07:40:07.683Z,100072.29
2023-04-10T07:44:28.008Z,100075.07
2023-04-10T07:48:52.036Z,100070.45
2023-04-10T07:53:15.963Z,100062.21
2023-04-10T07:57:35.059Z,100061.25
2023-04-10T08:01:54.471Z,100055.91
2023-04-10T08:06:18.006Z,100056.07
2023-04-10T08:10:41.782Z,100052.41
2023-04-10T08:15:05.527Z,100051.65
2023-04-10T08:19:27.897Z,100048.94
2023-04-10T08:23:51.746Z,100043.05
2023-04-10T08:28:15.549Z,100045.90
2023-04-10T08:32:31.910Z,100038.30
2023-04-10T08:36:55.699Z,100031.33
2023-04-10T08:41:14.253Z,100035.18
2023-04-10T08:45:38.000Z,100036.07
2023-04-10T08:50:04.624Z,100035.42
2023-04-10T08:54:27.149Z,100039.70
2023-04-10T08:58:43.388Z,100040.60
2023-04-10T09:03:07.274Z,100041.39
2023-04-10T09:07:30.904Z,100036.48
2023-04-10T09:11:13.467Z,100034.02
2023-04-10T09:15:30.455Z,100037.95
2023-04-10T09:19:53.968Z,100034.33
2023-04-10T09:24:20.213Z,100034.48
2023-04-10T09:28:44.087Z,100035.02
2023-04-10T09:33:13.892Z,100033.14
2023-04-10T09:37:13.248Z,100025.13
2023-04-10T09:41:36.230Z,100019.92
2023-04-10T09:46:00.017Z,100018.25
2023-04-10T09:50:23.107Z,100011.26
2023-04-10T09:54:48.629Z,100005.95
2023-04-10T09:59:12.426Z,100000.39
2023-04-10T10:03:10.037Z,99997.64
2023-04-10T10:07:33.872Z,99996.48
2023-04-10T10:11:52.974Z,99992.91
2023-04-10T10:16:12.959Z,99988.05
2023-04-10T10:20:42.861Z,99980.42
2023-04-10T10:25:00.786Z,99974.59
2023-04-10T10:29:17.256Z,99972.34
2023-04-10T10:33:41.188Z,99978.61
2023-04-10T10:38:04.957Z,99978.73
2023-04-10T10:42:26.923Z,99966.77
2023-04-10T10:46:53.279Z,99964.81
2023-04-10T10:51:16.001Z,99964.92
2023-04-10T10:55:38.304Z,99962.74
2023-04-10T11:00:00.992Z,99962.19
2023-04-10T11:04:24.787Z,99951.05
2023-04-10T11:08:59.730Z,99950.54
2023-04-10T11:13:21.973Z,99943.57
2023-04-10T11:17:45.914Z,99931.52
2023-04-10T11:22:12.909Z,99931.20
2023-04-10T11:26:52.079Z,99926.99
2023-04-10T11:31:21.146Z,99925.79
2023-04-10T11:35:44.763Z,99919.38
2023-04-10T11:40:08.399Z,99915.73
2023-04-10T11:44:32.300Z,99910.64
2023-04-10T11:48:47.405Z,99905.76
2023-04-10T11:53:11.178Z,99896.01
2023-04-10T11:57:41.026Z,99890.52
2023-04-10T12:01:44.545Z,99883.95
2023-04-10T12:06:07.174Z,99885.48
2023-04-10T12:10:26.896Z,99879.02
2023-04-10T12:14:53.793Z,99872.88
2023-04-10T12:19:17.632Z,99862.52
2023-04-10T12:23:41.318Z,99855.61
2023-04-10T12:27:58.011Z,99849.32
2023-04-10T12:32:30.935Z,99844.69
2023-04-10T12:37:00.445Z,99837.15
2023-04-10T12:41:39.142Z,99833.55
2023-04-10T12:45:58.022Z,99827.08
2023-04-10T12:50:18.489Z,99826.84
2023-04-10T12:54:42.237Z,99814.66
2023-04-10T12:58:58.773Z,99811.52
2023-04-10T13:03:15.789Z,99802.98
2023-04-10T13:07:45.620Z,99794.52
2023-04-10T13:11:58.388Z,99790.37
2023-04-10T13:16:15.898Z,99787.73
2023-04-10T13:20:39.669Z,99784.16
2023-04-10T13:25:01.129Z,99769.62
2023-04-10T13:29:24.904Z,99765.02
2023-04-10T13:33:47.913Z,99756.05
2023-04-10T13:37:54.291Z,99754.88
2023-04-10T13:42:18.057Z,99749.88
2023-04-10T13:46:33.313Z,99746.54
2023-04-10T13:50:50.213Z,99743.95
2023-04-10T13:55:13.938Z,99739.48
2023-04-10T13:59:30.132Z,99740.73
2023-04-10T14:03:51.082Z,99732.96
2023-04-10T14:08:15.138Z,99724.70
2023-04-10T14:12:38.931Z,99725.88
2023-04-10T14:17:02.667Z,99722.05
2023-04-10T14:21:23.626Z,99718.36
2023-04-10T14:25:47.619Z,99718.30
2023-04-10T14:30:09.770Z,99716.55
2023-04-10T14:34:26.951Z,99716.77
2023-04-10T14:38:50.688Z,99711.87
2023-04-10T14:43:14.408Z,99713.20
2023-04-10T14:47:28.593Z,99710.02
2023-04-10T14:51:52.392Z,99707.35
2023-04-10T14:56:08.967Z,99708.08
2023-04-10T15:00:32.772Z,99707.56
2023-04-10T15:04:56.525Z,99696.66
2023-04-10T15:09:21.899Z,99692.54
2023-04-10T15:13:46.510Z,99687.42
2023-04-10T15:18:10.605Z,99684.76
2023-04-10T15:22:34.431Z,99682.19
2023-04-10T15:26:33.970Z,99674.17
2023-04-10T15:30:50.646Z,99666.86
2023-04-10T15:35:14.402Z,99668.99
2023-04-10T15:39:28.350Z,99667.28
2023-04-10T15:43:50.856Z,99668.23
2023-04-10T15:48:14.668Z,99663.27
2023-04-10T15:52:20.934Z,99664.96
2023-04-10T15:56:44.807Z,99659.52
2023-04-10T16:01:08.563Z,99658.05
2023-04-10T16:05:32.339Z,99654.66
2023-04-10T16:09:56.382Z,99651.86
2023-04-10T16:14:20.485Z,99647.20
2023-04-10T16:18:43.104Z,99642.45
2023-04-10T16:22:58.238Z,99642.19
2023-04-10T16:27:15.148Z,99636.71
2023-04-10T16:31:39.258Z,99632.05
2023-04-10T16:35:55.992Z,99630.02
2023-04-10T16:40:08.826Z,99631.53
2023-04-10T16:44:12.409Z,99630.08
2023-04-10T16:48:36.195Z,99625.98
2023-04-10T16:53:00.154Z,99619.46
2023-04-10T16:57:24.252Z,99622.55
2023-04-10T17:01:53.364Z,99626.34
2023-04-10T17:06:16.208Z,99623.45
2023-04-10T17:10:40.184Z,99619.52
2023-04-10T17:15:04.251Z,99621.34
2023-04-10T17:19:26.518Z,99623.55
2023-04-10T17:23:50.310Z,99628.93
2023-04-10T17:28:14.446Z,99624.05
2023-04-10T17:32:36.712Z,99628.52
2023-04-10T17:37:00.877Z,99631.54
2023-04-10T17:41:24.805Z,99631.34
2023-04-10T17:45:48.700Z,99632.05
2023-04-10T17:50:11.441Z,99631.02
2023-04-10T17:54:33.815Z,99628.40
2023-04-10T17:58:57.939Z,99621.66
2023-04-10T18:03:21.870Z,99622.58
2023-04-10T18:07:45.848Z,99618.51
2023-04-10T18:12:10.492Z,99618.25
2023-04-10T18:16:34.677Z,99617.03
2023-04-10T18:20:58.749Z,99614.88
2023-04-10T18:25:14.193Z,99618.08
2023-04-10T18:29:30.804Z,99611.38
2023-04-10T18:34:06.612Z,99615.65
2023-04-10T18:38:31.840Z,99614.30
2023-04-10T18:42:49.082Z,99608.63
2023-04-10T18:47:13.077Z,99606.50
2023-04-10T18:51:13.717Z,99600.91
2023-04-10T18:55:37.673Z,99601.47
2023-04-10T19:00:01.850Z,99600.44
2023-04-10T19:04:25.867Z,99606.89
2023-04-10T19:08:50.231Z,99610.15
2023-04-10T19:12:56.734Z,99614.43
2023-04-10T19:17:20.524Z,99618.49
2023-04-10T19:21:44.506Z,99608.15
2023-04-10T19:25:53.712Z,99608.48
2023-04-10T19:30:17.590Z,99600.88
2023-04-10T19:34:41.721Z,99599.66
2023-04-10T19:39:05.817Z,99593.76
2023-04-10T19:43:29.945Z,99582.41
2023-04-10T19:47:45.532Z,99582.96
2023-04-10T19:52:09.339Z,99585.19
2023-04-10T19:56:33.163Z,99583.52
2023-04-10T20:00:56.035Z,99576.61
2023-04-10T20:05:06.502Z,99567.50
2023-04-10T20:09:29.276Z,99573.05
2023-04-10T20:13:45.762Z,99568.53
2023-04-10T20:18:09.515Z,99565.20
2023-04-10T20:22:30.324Z,99555.95
2023-04-10T20:26:47.866Z,99555.17
2023-04-10T20:31:10.694Z,99551.77
2023-04-10T20:35:33.678Z,99550.35
2023-04-10T20:39:57.467Z,99551.20
2023-04-10T20:44:22.012Z,99543.75
2023-04-10T20:48:45.835Z,99539.27
2023-04-10T20:53:09.592Z,99536.86
2023-04-10T20:57:33.413Z,99536.30
2023-04-10T21:01:57.196Z,99536.53
2023-04-10T21:06:19.587Z,99532.23
2023-04-10T21:10:43.401Z,99528.20
2023-04-10T21:15:07.208Z,99529.73
2023-04-10T21:19:31.003Z,99525.39
2023-04-10T21:23:47.489Z,99520.73
2023-04-10T21:28:09.760Z,99513.68
2023-04-10T21:32:33.615Z,99515.38
2023-04-10T21:36:57.410Z,99504.09
2023-04-10T21:41:19.851Z,99494.25
2023-04-10T21:45:42.580Z,99490.46
2023-04-10T21:50:06.402Z,99487.77
2023-04-10T21:54:30.214Z,99484.81
2023-04-10T21:58:54.173Z,99476.23
2023-04-10T22:03:16.928Z,99469.95
2023-04-10T22:07:28.553Z,99468.73
2023-04-10T22:11:52.286Z,99461.77
2023-04-10T22:16:16.054Z,99455.48
2023-04-10T22:20:25.086Z,99451.74
2023-04-10T22:24:47.327Z,99450.16
2023-04-10T22:28:53.921Z,99443.63
2023-04-10T22:33:17.848Z,99443.09
2023-04-10T22:37:40.191Z,99436.06
2023-04-10T22:42:02.608Z,99432.30
2023-04-10T22:46:26.397Z,99429.11
2023-04-10T22:50:42.896Z,99432.08
2023-04-10T22:55:06.617Z,99424.06
2023-04-10T22:59:30.419Z,99410.61
2023-04-10T23:03:54.305Z,99402.81
2023-04-10T23:08:18.043Z,99398.10
2023-04-10T23:12:41.839Z,99394.34
2023-04-10T23:17:05.626Z,99388.13
2023-04-10T23:21:22.133Z,99390.24
2023-04-10T23:25:45.960Z,99381.54
2023-04-10T23:30:09.736Z,99371.99
2023-04-10T23:34:33.618Z,99364.13
2023-04-10T23:38:55.932Z,99350.82
2023-04-10T23:43:14.260Z,99348.85
2023-04-10T23:47:30.829Z,99345.10
2023-04-10T23:51:54.589Z,99347.52
2023-04-10T23:56:18.365Z,99343.33
